This is the latest recevied weather packets stored in our database for station/object EA4TN. If no packets are shown the sender has not sent any weather packets the latest 10 day(s).
| Time | Temp. | Humidity | Pressure | Rain* | Wind** | Luminosity | Snow |
|---|---|---|---|---|---|---|---|
| 1777343417 | 15.56° C | 33% | 1014.1 hPa | 0 mm | - | - | - |
| 1777342217 | 16.11° C | 32% | 1014.2 hPa | 0 mm | - | - | - |
| 1777339217 | 16.67° C | 32% | - | 0 mm | - | - | - |
| 1777337417 | 16.67° C | 30% | - | 0 mm | - | - | - |
| 1777336817 | 16.67° C | 30% | - | 0 mm | - | - | - |
| 1777335617 | 17.22° C | 29% | - | 0 mm | - | - | - |
| 1777333817 | 17.78° C | 32% | - | 0 mm | - | - | - |
| 1777327817 | 19.44° C | 39% | 1014.1 hPa | 0 mm | - | - | - |
| 1777326617 | 20° C | 39% | 1014 hPa | 0 mm | - | - | - |
| 1777320017 | 22.22° C | 26% | 1013 hPa | 0 mm | - | - | - |
| 1777318817 | 22.22° C | 24% | 1012.7 hPa | 0 mm | - | - | - |
| 1777316437 | 23.89° C | 21% | 1012.5 hPa | 0 mm | - | - | - |
| 1777312817 | 25.56° C | 17% | 1012.6 hPa | 0 mm | - | - | - |
| 1777312217 | 26.11° C | 17% | 1012.8 hPa | 0 mm | - | - | - |
| 1777311037 | 26.67° C | 17% | 1013 hPa | 0 mm | - | - | - |
| 1777309817 | 27.22° C | 17% | 1013 hPa | 0 mm | - | - | - |
| 1777274736 | 16.11° C | 69% | 1018.3 hPa | 0 mm | - | - | - |
| 1777273516 | 15.56° C | 73% | 1018.5 hPa | 0 mm | - | - | - |
| 1777268116 | 13.89° C | 73% | 1017.8 hPa | 0 mm | - | - | - |
| 1777264516 | 14.44° C | 78% | 1018 hPa | 0 mm | - | - | - |
| 1777262136 | 15° C | 73% | 1018 hPa | 0 mm | - | - | - |
| 1777261516 | 15.56° C | 72% | 1018.2 hPa | 0 mm | - | - | - |
| 1777260916 | 15.56° C | 73% | 1018.3 hPa | 0 mm | - | - | - |
| 1777260316 | 15.56° C | 72% | 1018.4 hPa | 0 mm | - | - | - |
| 1777259116 | 16.11° C | 68% | 1018.3 hPa | 0 mm | - | - | - |
* Rain latest hour (hover to see other rain measurements)
** Current wind speed in m/s (hover to see current wind gust speed)